createdAt,value
2019-03-31T00:03:14.386Z,19.73
2019-03-31T00:08:19.748Z,18.13
2019-03-31T00:13:25.187Z,18.77
2019-03-31T00:18:30.364Z,16.80
2019-03-31T00:23:37.957Z,22.17
2019-03-31T00:28:43.181Z,21.10
2019-03-31T00:33:48.165Z,20.80
2019-03-31T00:38:53.163Z,17.30
2019-03-31T00:43:59.471Z,18.30
2019-03-31T00:49:04.484Z,20.70
2019-03-31T00:54:09.851Z,21.63
2019-03-31T00:59:14.856Z,19.10
2019-03-31T01:04:25.848Z,18.73
2019-03-31T01:09:32.881Z,21.40
2019-03-31T01:14:38.073Z,19.67
2019-03-31T01:19:44.845Z,24.17
2019-03-31T01:24:50.170Z,15.73
2019-03-31T01:29:55.558Z,16.17
2019-03-31T01:35:02.261Z,17.23
2019-03-31T01:40:07.745Z,16.07
2019-03-31T01:45:13.570Z,16.50
2019-03-31T01:50:19.753Z,21.67
2019-03-31T01:55:25.164Z,20.73
2019-03-31T02:00:42.459Z,18.50
2019-03-31T02:05:47.715Z,20.37
2019-03-31T02:10:54.273Z,20.67
2019-03-31T02:15:59.961Z,15.53
2019-03-31T02:21:05.336Z,18.95
2019-03-31T02:26:10.549Z,15.00
2019-03-31T02:31:15.716Z,18.67
2019-03-31T02:36:20.836Z,17.97
2019-03-31T02:41:25.722Z,16.70
2019-03-31T02:46:30.844Z,18.53
2019-03-31T02:51:36.295Z,23.00
2019-03-31T02:56:41.885Z,22.03
2019-03-31T03:01:48.517Z,21.03
2019-03-31T03:06:55.966Z,16.13
2019-03-31T03:12:01.172Z,19.20
2019-03-31T03:17:06.679Z,18.43
2019-03-31T03:22:12.044Z,19.53
2019-03-31T03:27:17.605Z,14.70
2019-03-31T03:32:22.862Z,16.27
2019-03-31T03:37:27.764Z,14.83
2019-03-31T03:42:33.453Z,15.50
2019-03-31T03:47:38.387Z,16.13
2019-03-31T03:52:43.385Z,42.03
2019-03-31T03:57:48.655Z,44.93
2019-03-31T04:02:53.823Z,23.13
2019-03-31T04:07:59.530Z,17.77
2019-03-31T04:13:04.664Z,16.97
2019-03-31T04:18:09.821Z,15.83
2019-03-31T04:23:14.915Z,21.67
2019-03-31T04:28:19.809Z,15.30
2019-03-31T04:33:25.016Z,18.53
2019-03-31T04:38:30.462Z,14.60
2019-03-31T04:43:35.783Z,14.50
2019-03-31T04:48:41.529Z,15.70
2019-03-31T04:53:46.715Z,15.37
2019-03-31T04:58:52.167Z,19.23
2019-03-31T05:04:04.446Z,21.07
2019-03-31T05:09:05.815Z,16.57
2019-03-31T05:14:11.447Z,18.77
2019-03-31T05:19:16.439Z,17.97
2019-03-31T05:24:24.605Z,17.53
2019-03-31T05:29:29.608Z,20.47
2019-03-31T05:34:34.627Z,16.07
2019-03-31T05:39:39.912Z,17.77
2019-03-31T05:44:45.333Z,15.53
2019-03-31T05:49:50.848Z,22.27
2019-03-31T05:54:55.689Z,15.77
2019-03-31T06:00:00.897Z,21.27
2019-03-31T06:05:06.281Z,16.80
2019-03-31T06:10:11.194Z,24.77
2019-03-31T06:15:16.255Z,17.90
2019-03-31T06:20:22.050Z,17.97
2019-03-31T06:25:26.939Z,17.10
2019-03-31T06:30:32.317Z,17.53
2019-03-31T06:35:39.464Z,19.57
2019-03-31T06:40:46.971Z,16.67
2019-03-31T06:45:52.126Z,15.97
2019-03-31T06:51:02.005Z,15.30
2019-03-31T06:56:07.477Z,12.13
2019-03-31T07:01:20.762Z,11.63
2019-03-31T07:06:26.389Z,12.68
2019-03-31T07:11:32.151Z,17.60
2019-03-31T07:16:37.386Z,17.25
2019-03-31T07:21:43.076Z,10.82
2019-03-31T07:26:48.071Z,12.33
2019-03-31T07:31:54.194Z,11.85
2019-03-31T07:36:59.258Z,15.20
2019-03-31T07:42:05.082Z,10.32
2019-03-31T07:47:10.922Z,12.10
2019-03-31T07:52:15.961Z,13.25
2019-03-31T07:57:21.038Z,14.60
2019-03-31T08:02:26.647Z,12.90
2019-03-31T08:07:38.203Z,11.85
2019-03-31T08:12:43.529Z,14.93
2019-03-31T08:17:49.972Z,13.90
2019-03-31T08:22:57.084Z,17.60
2019-03-31T08:28:03.399Z,17.25
2019-03-31T08:33:10.550Z,18.55
2019-03-31T08:38:16.115Z,18.53
2019-03-31T08:43:21.575Z,21.65
2019-03-31T08:48:27.074Z,19.57
2019-03-31T08:53:33.586Z,17.32
2019-03-31T08:58:39.362Z,16.85
2019-03-31T09:03:47.094Z,20.15
2019-03-31T09:08:52.458Z,19.17
2019-03-31T09:13:57.727Z,20.25
2019-03-31T09:19:04.595Z,20.90
2019-03-31T09:24:12.944Z,23.07
2019-03-31T09:29:20.592Z,25.85
2019-03-31T09:34:26.133Z,23.52
2019-03-31T09:39:32.490Z,22.90
2019-03-31T09:44:37.829Z,24.75
2019-03-31T09:49:42.971Z,24.72
2019-03-31T09:54:49.562Z,27.62
2019-03-31T09:59:54.624Z,26.52
2019-03-31T10:05:00.137Z,25.62
2019-03-31T10:10:06.951Z,27.42
2019-03-31T10:15:15.979Z,32.63
2019-03-31T10:20:21.694Z,26.97
2019-03-31T10:25:30.159Z,29.07
2019-03-31T10:30:37.432Z,25.97
2019-03-31T10:35:42.358Z,31.42
2019-03-31T10:40:47.595Z,29.48
2019-03-31T10:45:52.850Z,28.55
2019-03-31T10:50:58.393Z,31.77
2019-03-31T10:56:03.993Z,26.95
2019-03-31T11:01:09.970Z,32.08
2019-03-31T11:06:16.139Z,30.92
2019-03-31T11:11:21.601Z,32.80
2019-03-31T11:16:27.171Z,22.13
2019-03-31T11:21:49.472Z,16.25
2019-03-31T11:26:55.117Z,19.52
2019-03-31T11:32:01.251Z,17.35
2019-03-31T11:37:13.877Z,22.17
2019-03-31T11:42:18.673Z,20.88
2019-03-31T11:47:28.228Z,16.57
2019-03-31T11:52:34.407Z,11.65
2019-03-31T11:57:39.888Z,19.80
2019-03-31T12:02:45.214Z,17.00
2019-03-31T12:07:50.825Z,15.17
2019-03-31T12:12:56.772Z,14.93
2019-03-31T12:18:06.837Z,17.37
2019-03-31T12:23:13.550Z,19.62
2019-03-31T12:28:19.010Z,18.65
2019-03-31T12:33:24.668Z,19.67
2019-03-31T12:38:39.238Z,22.10
2019-03-31T12:43:45.438Z,17.73
2019-03-31T12:48:50.742Z,18.15
2019-03-31T12:53:56.185Z,20.85
2019-03-31T12:59:01.055Z,13.60
2019-03-31T13:04:06.369Z,14.90
2019-03-31T13:09:12.970Z,17.42
2019-03-31T13:14:18.138Z,13.90
2019-03-31T13:19:23.985Z,19.10
2019-03-31T13:24:29.446Z,16.85
2019-03-31T13:29:34.454Z,24.70
2019-03-31T13:34:39.468Z,16.23
2019-03-31T13:39:44.713Z,22.00
2019-03-31T13:44:49.917Z,25.73
2019-03-31T13:49:56.028Z,17.85
2019-03-31T13:55:01.777Z,18.00
2019-03-31T14:00:09.056Z,17.32
2019-03-31T14:05:14.214Z,18.73
2019-03-31T14:10:20.997Z,12.88
2019-03-31T14:15:26.985Z,21.57
2019-03-31T14:20:32.371Z,13.62
2019-03-31T14:25:39.530Z,16.20
2019-03-31T14:30:45.933Z,14.87
2019-03-31T14:35:51.203Z,13.45
2019-03-31T14:40:56.420Z,12.23
2019-03-31T14:46:01.742Z,17.23
2019-03-31T14:51:12.875Z,17.57
2019-03-31T14:56:18.217Z,19.30
2019-03-31T15:01:23.448Z,17.05
2019-03-31T15:06:28.779Z,12.75
2019-03-31T15:11:34.520Z,14.70
2019-03-31T15:16:39.573Z,13.48
2019-03-31T15:21:45.213Z,12.55
2019-03-31T15:37:11.607Z,8.80
2019-03-31T15:42:18.688Z,12.53
2019-03-31T15:47:24.784Z,12.58
2019-03-31T15:52:30.163Z,9.50
2019-03-31T15:57:36.501Z,10.48
2019-03-31T16:02:41.957Z,11.30
2019-03-31T16:07:47.268Z,12.20
2019-03-31T16:12:53.239Z,9.05
2019-03-31T16:17:58.279Z,11.20
2019-03-31T16:23:02.882Z,27.07
2019-03-31T16:28:08.505Z,27.60
2019-03-31T16:33:13.558Z,25.04
2019-03-31T16:38:19.769Z,8.17
2019-03-31T16:43:27.105Z,7.62
2019-03-31T16:48:35.013Z,7.23
2019-03-31T16:53:39.778Z,7.47
2019-03-31T16:58:44.679Z,6.83
2019-03-31T17:03:49.799Z,6.93
2019-03-31T17:08:54.673Z,5.85
2019-03-31T17:13:59.374Z,12.53
2019-03-31T17:19:04.156Z,5.73
2019-03-31T17:24:11.693Z,9.33
2019-03-31T17:29:16.676Z,7.67
2019-03-31T17:34:22.586Z,4.93
2019-03-31T17:39:27.537Z,5.50
2019-03-31T17:44:32.580Z,5.93
2019-03-31T17:49:39.573Z,14.13
2019-03-31T17:54:44.506Z,10.90
2019-03-31T17:59:49.543Z,6.47
2019-03-31T18:04:54.300Z,8.70
2019-03-31T18:10:00.382Z,7.30
2019-03-31T18:15:05.657Z,7.07
2019-03-31T18:20:11.122Z,6.33
2019-03-31T18:25:15.595Z,7.25
2019-03-31T18:30:21.366Z,7.80
2019-03-31T18:35:26.052Z,8.13
2019-03-31T18:40:35.396Z,8.37
2019-03-31T18:45:42.872Z,6.90
2019-03-31T18:50:48.663Z,7.63
2019-03-31T18:56:14.184Z,10.38
2019-03-31T19:01:28.311Z,6.67
2019-03-31T19:07:01.065Z,9.20
2019-03-31T19:12:26.348Z,10.30
2019-03-31T19:17:50.806Z,13.07
2019-03-31T19:23:18.121Z,7.83
2019-03-31T19:28:47.878Z,7.62
2019-03-31T19:34:17.894Z,7.23
2019-03-31T19:39:40.917Z,9.33
2019-03-31T19:45:19.648Z,7.40
2019-03-31T19:50:42.586Z,7.93
2019-03-31T19:56:07.017Z,8.43
2019-03-31T20:01:23.340Z,7.43
2019-03-31T20:07:05.615Z,10.93
2019-03-31T20:12:30.925Z,12.07
2019-03-31T20:17:53.916Z,9.10
2019-03-31T20:23:26.720Z,25.43
2019-03-31T20:28:59.164Z,43.53
2019-03-31T20:34:20.923Z,34.10
2019-03-31T20:39:56.900Z,35.45
2019-03-31T20:45:00.995Z,27.53
2019-03-31T20:50:09.451Z,29.10
2019-03-31T20:55:16.727Z,16.70
2019-03-31T21:00:21.753Z,13.60
2019-03-31T21:05:26.926Z,19.00
2019-03-31T21:10:32.863Z,18.00
2019-03-31T21:15:39.739Z,27.27
2019-03-31T21:20:44.651Z,28.93
2019-03-31T21:25:49.442Z,25.37
2019-03-31T21:30:54.517Z,24.77
2019-03-31T21:36:00.175Z,19.97
2019-03-31T21:41:04.926Z,16.10
2019-03-31T21:46:09.370Z,18.07
2019-03-31T21:51:14.023Z,15.80
2019-03-31T21:56:18.990Z,16.93
2019-03-31T22:01:24.343Z,20.13
2019-03-31T22:06:29.087Z,19.33
2019-03-31T22:11:34.879Z,19.87
2019-03-31T22:16:40.641Z,18.00
2019-03-31T22:21:45.399Z,16.07
2019-03-31T22:26:50.447Z,18.20
2019-03-31T22:31:55.109Z,22.33
2019-03-31T22:36:59.513Z,23.47
2019-03-31T22:42:04.409Z,25.80
2019-03-31T22:47:08.870Z,27.63
2019-03-31T22:52:14.919Z,29.50
2019-03-31T22:57:22.311Z,33.40
2019-03-31T23:02:26.689Z,29.15
2019-03-31T23:07:33.128Z,32.63
2019-03-31T23:12:37.891Z,34.20
2019-03-31T23:17:42.844Z,35.90
2019-03-31T23:22:48.197Z,40.85
2019-03-31T23:27:54.282Z,42.23
2019-03-31T23:32:59.196Z,39.23
2019-03-31T23:38:04.100Z,41.23
2019-03-31T23:43:09.127Z,41.07
2019-03-31T23:48:14.298Z,41.70
2019-03-31T23:53:19.770Z,40.63
2019-03-31T23:58:24.236Z,46.43
